Fairbanks, AK (99775)

11:22 AM AKDT on September 03, 2015 (GMT -0800)
19th and Kennedy | | Change Station
CLOSE
Current Station
Personal Weather Station
Location: Fairbanks, AK
Elevation: 440 ft
Nearby Weather Stations

Elev 440 ft 64.83 °N, 147.80 °W | Updated 6 minutes ago

Mostly Cloudy
Mostly Cloudy
57.2 °F
Feels Like 57.2 °F
N
2.2
Wind Variable Wind from SE

Today
High -- | Low -- °F
--% Chance of Precip.
Yesterday
High -- | Low -- °F
Precip. -- in
6:37 AM 9:02 PM
Waning Gibbous, 67% visible
Pressure 29.94 in
Visibility 10.0 miles
Clouds Scattered Clouds 15000 ft
Mostly Cloudy 21000 ft
Dew Point 43 °F
Humidity 58%
Rainfall 0.00 in
Snow Depth Not available.
UV 1 out of 12
Pollen Not available.
Air Quality Not available.
Flu Activity Not available.
METAR PAFA 031853Z 07006KT 10SM SCT150 BKN210 14/04 A2992 RMK AO2 SLP136 T01390039
Pressure 29.94 in
Visibility 10.0 miles
Clouds Scattered Clouds 15000 ft
Mostly Cloudy 21000 ft
Dew Point 43 °F
Humidity 58%
Rainfall 0.00 in
Snow Depth Not available.
UV 1 out of 12
Pollen Not available.
Air Quality Not available.
Flu Activity Not available.
METAR PAFA 031853Z 07006KT 10SM SCT150 BKN210 14/04 A2992 RMK AO2 SLP136 T01390039

10-Day Weather Forecast

×

Almanac

Astronomy

Sep. 03, 2015 Rise Set
Actual Time
Civil Twilight
Nautical Twilight
Astronomical Twilight
Moon
Length of Visible Light
Length of Day
Tomorrow will be .
, % of the Moon is Illuminated

Today's Extremes

State Highs State Lows

Community

WunderPhotos

Upload Photos

1,852,014 photos uploaded!

WunderBlogs® & News

Nearby

Air Quality

  Air Quality AQ Index Pollutant
Not available.

Snow Depth

Station Depth Elevation

Earthquake Activity

City Distance Mag. Time & Date
Minimum magnitude displayed is 2.5.

Coastal Water Temperatures

Place Temperature

Stations

Nearby Weather Stations

Station Location Temp. Windchill Dew Point Humidity Wind Precip. Elev Updated Type